Time;durP1;ratioP1;P1;durP2;ratioP2;P2;SDS_P1;SDS_P2;PMS_P1;PMS_P2;Temp;Humidity;BMP_temperature;BMP_pressure;BME280_temperature;BME280_humidity;BME280_pressure;Samples;Min_cycle;Max_cycle;Signal;HPM_P1;HPM_P2
2022/07/24 00:00:31;;;;;;;0.90;0.90;;;;;;;;;;5015853;28;20215;-81
2022/07/24 00:02:59;;;;;;;1.00;1.00;;;;;;;;;;5016040;28;20239;-82
2022/07/24 00:05:26;;;;;;;0.98;0.98;;;;;;;;;;5016382;28;20230;-81
2022/07/24 00:07:54;;;;;;;1.45;1.35;;;;;;;;;;5015956;28;20199;-82
2022/07/24 00:10:22;;;;;;;1.15;1.15;;;;;;;;;;5014749;28;20233;-82
2022/07/24 00:12:49;;;;;;;0.90;0.90;;;;;;;;;;5014665;28;20289;-82
2022/07/24 00:15:17;;;;;;;1.20;1.10;;;;;;;;;;5014376;28;20218;-81
2022/07/24 00:17:46;;;;;;;0.95;0.95;;;;;;;;;;5014124;28;20254;-82
2022/07/24 00:20:13;;;;;;;0.82;0.80;;;;;;;;;;5014189;28;20723;-82
2022/07/24 00:22:41;;;;;;;1.00;1.00;;;;;;;;;;5014124;28;20585;-81
2022/07/24 00:25:09;;;;;;;1.00;1.00;;;;;;;;;;5047315;28;20248;-82
2022/07/24 00:27:36;;;;;;;1.10;1.10;;;;;;;;;;5054203;28;20206;-82
2022/07/24 00:30:06;;;;;;;1.00;1.00;;;;;;;;;;5053868;28;20396;-82
2022/07/24 00:32:33;;;;;;;2.25;1.15;;;;;;;;;;5053723;28;20665;-81
2022/07/24 00:35:02;;;;;;;2.58;1.30;;;;;;;;;;5053889;28;20232;-82
2022/07/24 00:37:30;;;;;;;1.15;1.15;;;;;;;;;;5053241;28;20221;-81
2022/07/24 00:39:57;;;;;;;0.98;0.98;;;;;;;;;;5053161;28;20232;-80
2022/07/24 00:42:25;;;;;;;1.23;1.13;;;;;;;;;;5053515;28;20284;-82
2022/07/24 00:44:52;;;;;;;0.93;0.93;;;;;;;;;;5053216;28;20249;-82
2022/07/24 00:47:20;;;;;;;1.00;1.00;;;;;;;;;;5052447;28;20233;-81
2022/07/24 00:49:47;;;;;;;1.00;1.00;;;;;;;;;;5052845;28;20283;-80
2022/07/24 00:52:16;;;;;;;1.45;1.35;;;;;;;;;;5053118;28;20240;-82
2022/07/24 00:54:44;;;;;;;1.40;1.30;;;;;;;;;;5040020;28;20278;-81
2022/07/24 00:57:11;;;;;;;1.50;1.40;;;;;;;;;;5032947;28;20222;-81
2022/07/24 00:59:39;;;;;;;1.05;1.05;;;;;;;;;;5032301;28;20220;-82
2022/07/24 01:02:06;;;;;;;1.30;1.20;;;;;;;;;;5032843;28;20213;-82
2022/07/24 01:04:34;;;;;;;1.35;1.25;;;;;;;;;;5032296;28;20229;-80
2022/07/24 01:07:01;;;;;;;1.25;1.05;;;;;;;;;;5032243;28;20244;-80
2022/07/24 01:09:30;;;;;;;1.83;1.40;;;;;;;;;;5032289;28;20214;-81
2022/07/24 01:11:58;;;;;;;1.20;1.10;;;;;;;;;;5033171;28;20240;-81
2022/07/24 01:14:27;;;;;;;1.40;1.30;;;;;;;;;;5036556;28;20198;-81
2022/07/24 01:16:54;;;;;;;1.05;1.05;;;;;;;;;;5035621;28;20635;-81
2022/07/24 01:19:22;;;;;;;1.40;1.30;;;;;;;;;;5035629;28;20280;-80
2022/07/24 01:21:53;;;;;;;1.33;1.23;;;;;;;;;;5035817;28;20754;-81
2022/07/24 01:24:21;;;;;;;1.40;1.30;;;;;;;;;;5045985;28;20260;-80
2022/07/24 01:26:49;;;;;;;1.80;1.40;;;;;;;;;;5055513;28;20697;-81
2022/07/24 01:29:17;;;;;;;1.30;1.20;;;;;;;;;;5055709;28;20697;-80
2022/07/24 01:31:45;;;;;;;1.45;1.40;;;;;;;;;;5055610;28;20233;-80
2022/07/24 01:34:13;;;;;;;1.30;1.30;;;;;;;;;;5055280;28;20248;-80
2022/07/24 01:36:41;;;;;;;1.08;1.08;;;;;;;;;;5055714;28;20197;-81
2022/07/24 01:39:10;;;;;;;1.10;1.10;;;;;;;;;;5055578;28;20221;-81
2022/07/24 01:41:37;;;;;;;1.48;1.38;;;;;;;;;;5055482;28;20240;-80
2022/07/24 01:44:05;;;;;;;1.08;1.08;;;;;;;;;;5055814;28;20248;-80
2022/07/24 01:46:33;;;;;;;1.13;1.13;;;;;;;;;;5055032;28;20237;-80
2022/07/24 01:49:00;;;;;;;0.90;0.90;;;;;;;;;;5055249;28;20249;-81
2022/07/24 01:51:28;;;;;;;1.80;1.00;;;;;;;;;;5055405;28;20241;-81
2022/07/24 01:53:55;;;;;;;0.90;0.90;;;;;;;;;;5048664;28;20661;-81
2022/07/24 01:56:24;;;;;;;0.80;0.80;;;;;;;;;;5035479;28;20245;-80
2022/07/24 01:58:52;;;;;;;1.00;1.00;;;;;;;;;;5035109;28;20230;-81
2022/07/24 02:01:19;;;;;;;0.93;0.93;;;;;;;;;;5035517;28;20203;-82
2022/07/24 02:03:48;;;;;;;1.20;1.10;;;;;;;;;;5034845;28;20673;-81
2022/07/24 02:06:15;;;;;;;1.52;1.40;;;;;;;;;;5034879;28;20218;-81
2022/07/24 02:08:44;;;;;;;0.70;0.70;;;;;;;;;;5035036;28;20314;-80
2022/07/24 02:11:11;;;;;;;1.00;1.00;;;;;;;;;;5035094;28;20257;-80
2022/07/24 02:13:40;;;;;;;1.20;1.20;;;;;;;;;;5034863;28;20244;-81
2022/07/24 02:16:08;;;;;;;1.00;1.00;;;;;;;;;;5034806;28;20253;-81
2022/07/24 02:18:36;;;;;;;0.85;0.85;;;;;;;;;;5034538;28;20658;-81
2022/07/24 02:21:04;;;;;;;1.00;1.00;;;;;;;;;;5035106;28;20195;-80
2022/07/24 02:23:31;;;;;;;0.80;0.80;;;;;;;;;;5037459;28;20194;-82
2022/07/24 02:25:59;;;;;;;1.00;1.00;;;;;;;;;;5054740;28;20229;-82
2022/07/24 02:28:26;;;;;;;0.90;0.90;;;;;;;;;;5054724;28;20236;-81
2022/07/24 02:30:55;;;;;;;0.80;0.80;;;;;;;;;;5054666;28;20675;-81
2022/07/24 02:33:23;;;;;;;1.00;1.00;;;;;;;;;;5058314;28;20244;-81
2022/07/24 02:35:50;;;;;;;0.90;0.90;;;;;;;;;;5058882;28;20205;-81
2022/07/24 02:38:18;;;;;;;0.90;0.90;;;;;;;;;;5057368;28;20212;-82
2022/07/24 02:40:45;;;;;;;0.85;0.85;;;;;;;;;;5059282;28;20287;-82
2022/07/24 02:43:13;;;;;;;0.90;0.90;;;;;;;;;;5060054;28;20234;-82
2022/07/24 02:45:41;;;;;;;1.08;1.08;;;;;;;;;;5057972;28;20229;-83
2022/07/24 02:48:09;;;;;;;0.90;0.90;;;;;;;;;;5057414;28;20245;-82
2022/07/24 02:50:38;;;;;;;1.05;1.00;;;;;;;;;;5057848;28;20279;-82
2022/07/24 02:53:06;;;;;;;0.90;0.90;;;;;;;;;;5057184;28;20205;-80
2022/07/24 02:55:34;;;;;;;0.85;0.85;;;;;;;;;;5017201;28;20233;-82
2022/07/24 02:58:01;;;;;;;0.93;0.93;;;;;;;;;;5016306;28;20290;-80
2022/07/24 03:00:29;;;;;;;0.90;0.90;;;;;;;;;;5015418;28;20297;-80
2022/07/24 03:02:57;;;;;;;0.80;0.80;;;;;;;;;;5016051;28;20239;-79
2022/07/24 03:05:25;;;;;;;1.05;1.05;;;;;;;;;;5015641;28;20239;-81
2022/07/24 03:07:53;;;;;;;0.90;0.90;;;;;;;;;;5016217;28;20207;-81
2022/07/24 03:10:21;;;;;;;1.08;1.08;;;;;;;;;;5016181;28;20223;-80
2022/07/24 03:12:49;;;;;;;1.30;1.20;;;;;;;;;;5015758;28;20419;-80
2022/07/24 03:15:17;;;;;;;1.08;1.08;;;;;;;;;;5015807;28;20203;-82
2022/07/24 03:17:51;;;;;;;1.25;1.17;;;;;;;;;;5015542;28;20288;-81
2022/07/24 03:20:19;;;;;;;1.63;1.45;;;;;;;;;;5015334;28;20223;-81
2022/07/24 03:22:48;;;;;;;1.00;1.00;;;;;;;;;;5015729;28;20237;-81
2022/07/24 03:25:16;;;;;;;0.88;0.88;;;;;;;;;;5050221;28;20245;-81
2022/07/24 03:27:45;;;;;;;0.80;0.80;;;;;;;;;;5054001;28;20280;-81
2022/07/24 03:30:13;;;;;;;0.80;0.80;;;;;;;;;;5054760;28;20225;-81
2022/07/24 03:32:40;;;;;;;1.27;1.17;;;;;;;;;;5054903;28;20237;-81
2022/07/24 03:35:09;;;;;;;1.23;1.10;;;;;;;;;;5054166;28;20237;-80
2022/07/24 03:37:37;;;;;;;1.20;1.20;;;;;;;;;;5053863;28;20239;-81
2022/07/24 03:40:08;;;;;;;1.23;1.15;;;;;;;;;;5059434;28;20248;-80
2022/07/24 03:42:36;;;;;;;1.10;1.10;;;;;;;;;;5043931;28;20198;-80
2022/07/24 03:45:03;;;;;;;1.13;1.10;;;;;;;;;;5039744;28;20248;-81
2022/07/24 03:47:31;;;;;;;0.93;0.93;;;;;;;;;;5046007;28;20202;-82
2022/07/24 03:49:59;;;;;;;0.90;0.90;;;;;;;;;;5037381;28;20305;-82
2022/07/24 03:52:26;;;;;;;0.98;0.98;;;;;;;;;;5036144;28;20286;-82
2022/07/24 03:54:55;;;;;;;0.90;0.90;;;;;;;;;;5027838;28;20198;-81
2022/07/24 03:57:24;;;;;;;1.05;1.05;;;;;;;;;;5026983;28;20584;-82
2022/07/24 03:59:52;;;;;;;1.70;1.17;;;;;;;;;;5035233;28;20234;-80
2022/07/24 04:02:19;;;;;;;0.80;0.80;;;;;;;;;;5035162;28;20280;-81
2022/07/24 04:04:47;;;;;;;0.90;0.90;;;;;;;;;;5035318;28;20270;-80
2022/07/24 04:07:14;;;;;;;1.15;1.15;;;;;;;;;;5034638;28;20289;-81
2022/07/24 04:09:42;;;;;;;0.85;0.85;;;;;;;;;;5034972;28;20314;-80
2022/07/24 04:12:10;;;;;;;1.05;1.05;;;;;;;;;;5035163;28;20229;-80
2022/07/24 04:14:39;;;;;;;1.00;1.00;;;;;;;;;;5035044;28;20293;-81
2022/07/24 04:17:07;;;;;;;1.00;1.00;;;;;;;;;;5034368;28;20289;-81
2022/07/24 04:19:34;;;;;;;0.85;0.85;;;;;;;;;;5034150;28;20796;-81
2022/07/24 04:22:02;;;;;;;1.00;1.00;;;;;;;;;;5035029;28;20293;-81
2022/07/24 04:24:29;;;;;;;1.42;1.42;;;;;;;;;;5045338;28;20703;-82
2022/07/24 04:26:57;;;;;;;2.10;1.90;;;;;;;;;;5054217;28;20284;-81
2022/07/24 04:29:24;;;;;;;2.28;2.10;;;;;;;;;;5054455;28;20226;-81
2022/07/24 04:31:53;;;;;;;1.38;1.33;;;;;;;;;;5053887;28;20288;-82
2022/07/24 04:34:21;;;;;;;1.90;1.65;;;;;;;;;;5054035;28;20293;-81
2022/07/24 04:36:48;;;;;;;1.67;1.45;;;;;;;;;;5053886;28;20648;-81
2022/07/24 04:39:16;;;;;;;1.30;1.20;;;;;;;;;;5053827;28;20224;-82
2022/07/24 04:41:44;;;;;;;1.52;1.42;;;;;;;;;;5053747;28;20252;-81
2022/07/24 04:44:11;;;;;;;1.73;1.55;;;;;;;;;;5053589;28;20756;-81
2022/07/24 04:46:39;;;;;;;1.60;1.50;;;;;;;;;;5053468;28;20284;-81
2022/07/24 04:49:07;;;;;;;1.67;1.58;;;;;;;;;;5053396;28;20289;-81
2022/07/24 04:51:35;;;;;;;1.50;1.40;;;;;;;;;;5053694;28;20287;-82
2022/07/24 04:54:03;;;;;;;1.20;1.20;;;;;;;;;;5046147;28;20278;-82
2022/07/24 04:56:32;;;;;;;2.85;1.60;;;;;;;;;;5033097;28;20281;-81
2022/07/24 04:59:01;;;;;;;1.30;1.30;;;;;;;;;;5033297;28;20706;-81
2022/07/24 05:01:29;;;;;;;2.35;1.98;;;;;;;;;;5033712;28;20218;-82
2022/07/24 05:03:58;;;;;;;2.20;2.10;;;;;;;;;;5033454;28;20280;-81
2022/07/24 05:06:27;;;;;;;2.85;2.65;;;;;;;;;;5033154;28;20209;-80
2022/07/24 05:08:55;;;;;;;2.58;2.38;;;;;;;;;;5033108;28;20272;-81
2022/07/24 05:11:22;;;;;;;1.90;1.80;;;;;;;;;;5033262;28;20285;-82
2022/07/24 05:13:50;;;;;;;1.63;1.52;;;;;;;;;;5034091;28;20293;-81
2022/07/24 05:16:17;;;;;;;2.20;2.00;;;;;;;;;;5037319;28;20244;-81
2022/07/24 05:21:15;;;;;;;1.45;1.40;;;;;;;;;;5054537;22;20225;-80
2022/07/24 05:23:44;;;;;;;1.70;1.60;;;;;;;;;;5032979;28;20638;-80
2022/07/24 05:26:12;;;;;;;1.90;1.80;;;;;;;;;;5014591;28;20207;-79
2022/07/24 05:28:40;;;;;;;2.22;2.03;;;;;;;;;;5013672;28;20230;-80
2022/07/24 05:31:08;;;;;;;2.60;2.40;;;;;;;;;;5014620;28;20251;-80
2022/07/24 05:33:36;;;;;;;2.13;1.92;;;;;;;;;;5013013;28;20206;-79
2022/07/24 05:36:04;;;;;;;1.92;1.83;;;;;;;;;;5013261;28;20638;-80
2022/07/24 05:38:31;;;;;;;1.95;1.85;;;;;;;;;;5013897;28;20211;-80
2022/07/24 05:41:01;;;;;;;2.33;2.20;;;;;;;;;;5013541;28;20271;-81
2022/07/24 05:43:29;;;;;;;1.85;1.75;;;;;;;;;;5013738;28;20246;-79
2022/07/24 05:45:57;;;;;;;2.15;2.05;;;;;;;;;;5013796;28;20217;-79
2022/07/24 05:48:24;;;;;;;2.10;2.00;;;;;;;;;;5013743;28;20738;-79
2022/07/24 05:50:52;;;;;;;2.50;2.30;;;;;;;;;;5014097;28;20410;-79
2022/07/24 05:53:19;;;;;;;2.00;1.90;;;;;;;;;;5013534;28;20238;-79
2022/07/24 05:55:47;;;;;;;2.63;2.15;;;;;;;;;;5013650;28;20285;-78
2022/07/24 05:58:16;;;;;;;1.85;1.75;;;;;;;;;;5013433;28;20322;-79
2022/07/24 06:00:43;;;;;;;1.73;1.63;;;;;;;;;;5016443;28;20330;-79
2022/07/24 06:03:11;;;;;;;2.40;2.13;;;;;;;;;;5016907;28;20245;-79
2022/07/24 06:05:39;;;;;;;2.67;2.15;;;;;;;;;;5017295;28;20207;-79
2022/07/24 06:08:07;;;;;;;2.45;2.15;;;;;;;;;;5017639;28;20649;-79
2022/07/24 06:10:34;;;;;;;2.40;1.85;;;;;;;;;;5016565;28;20649;-79
2022/07/24 06:13:02;;;;;;;2.10;1.90;;;;;;;;;;5016290;28;20290;-79
2022/07/24 06:15:31;;;;;;;1.90;1.80;;;;;;;;;;5016700;28;20301;-79
2022/07/24 06:17:58;;;;;;;2.08;1.90;;;;;;;;;;5016571;28;20694;-79
2022/07/24 06:20:26;;;;;;;2.53;2.33;;;;;;;;;;5016322;28;20325;-79
2022/07/24 06:22:54;;;;;;;2.10;2.00;;;;;;;;;;5016508;28;20237;-81
2022/07/24 06:25:22;;;;;;;1.83;1.73;;;;;;;;;;5017322;28;20234;-81
2022/07/24 06:27:53;;;;;;;2.08;1.92;;;;;;;;;;5016594;28;20202;-79
2022/07/24 06:30:23;;;;;;;2.88;2.33;;;;;;;;;;5016485;28;20227;-80
2022/07/24 06:32:54;;;;;;;1.90;1.80;;;;;;;;;;5016113;28;20298;-80
2022/07/24 06:35:22;;;;;;;2.20;1.98;;;;;;;;;;5017266;28;20285;-81
2022/07/24 06:37:49;;;;;;;2.00;1.80;;;;;;;;;;5011522;28;20227;-80
2022/07/24 06:40:18;;;;;;;2.55;2.35;;;;;;;;;;5005724;28;20211;-81
2022/07/24 06:42:47;;;;;;;1.95;1.77;;;;;;;;;;5007332;28;20317;-80
2022/07/24 06:45:15;;;;;;;2.28;2.08;;;;;;;;;;4996892;28;20299;-81
2022/07/24 06:47:44;;;;;;;2.30;2.20;;;;;;;;;;4997266;28;20303;-79
2022/07/24 06:50:14;;;;;;;1.92;1.83;;;;;;;;;;4997052;28;20254;-80
2022/07/24 06:52:42;;;;;;;1.98;1.88;;;;;;;;;;4996415;28;20667;-80
2022/07/24 06:55:10;;;;;;;1.90;1.80;;;;;;;;;;5016935;28;20217;-80
2022/07/24 06:57:38;;;;;;;3.30;2.05;;;;;;;;;;5015509;28;20346;-80
2022/07/24 07:00:08;;;;;;;4.80;2.03;;;;;;;;;;5015526;28;20223;-81
2022/07/24 07:02:36;;;;;;;3.22;2.13;;;;;;;;;;5016217;28;20222;-81
2022/07/24 07:05:04;;;;;;;2.17;2.08;;;;;;;;;;5015936;28;20202;-81
2022/07/24 07:07:33;;;;;;;2.47;2.28;;;;;;;;;;5015194;28;20203;-80
2022/07/24 07:10:01;;;;;;;1.73;1.63;;;;;;;;;;5015173;28;20321;-80
2022/07/24 07:12:29;;;;;;;4.22;2.40;;;;;;;;;;5015820;28;20286;-80
2022/07/24 07:14:58;;;;;;;2.20;2.10;;;;;;;;;;5015587;28;20298;-82
2022/07/24 07:17:26;;;;;;;2.13;2.00;;;;;;;;;;5015432;28;20264;-81
2022/07/24 07:19:53;;;;;;;2.08;1.83;;;;;;;;;;5015050;28;20322;-82
2022/07/24 07:22:21;;;;;;;4.43;2.15;;;;;;;;;;5015512;28;20662;-80
2022/07/24 07:24:50;;;;;;;1.67;1.58;;;;;;;;;;5015441;28;20207;-80
2022/07/24 07:27:17;;;;;;;2.35;1.60;;;;;;;;;;5016896;28;20297;-81
2022/07/24 07:29:45;;;;;;;1.90;1.80;;;;;;;;;;5017716;28;20302;-79
2022/07/24 07:32:12;;;;;;;1.80;1.70;;;;;;;;;;5018182;28;20227;-80
2022/07/24 07:34:40;;;;;;;1.80;1.70;;;;;;;;;;5005933;28;20206;-81
2022/07/24 07:37:07;;;;;;;1.40;1.30;;;;;;;;;;4997453;28;20227;-81
2022/07/24 07:39:35;;;;;;;1.40;1.30;;;;;;;;;;4996610;28;20319;-80
2022/07/24 07:42:04;;;;;;;1.33;1.33;;;;;;;;;;4996988;28;20229;-81
2022/07/24 07:44:32;;;;;;;1.75;1.65;;;;;;;;;;5003700;28;20285;-81
2022/07/24 07:46:59;;;;;;;1.55;1.40;;;;;;;;;;4996849;28;20593;-81
2022/07/24 07:49:27;;;;;;;1.50;1.40;;;;;;;;;;4997698;28;20310;-81
2022/07/24 07:51:55;;;;;;;1.95;1.85;;;;;;;;;;4995542;28;20231;-81
2022/07/24 07:54:22;;;;;;;1.40;1.30;;;;;;;;;;5015511;28;20285;-81
2022/07/24 07:56:50;;;;;;;1.55;1.42;;;;;;;;;;5029877;28;20230;-79
2022/07/24 07:59:19;;;;;;;1.88;1.58;;;;;;;;;;5014884;28;20310;-83
2022/07/24 08:01:46;;;;;;;1.75;1.65;;;;;;;;;;5014443;28;20227;-82
2022/07/24 08:04:14;;;;;;;1.23;1.17;;;;;;;;;;5014258;28;20234;-81
2022/07/24 08:06:41;;;;;;;1.65;1.23;;;;;;;;;;5014071;28;20289;-81
2022/07/24 08:09:09;;;;;;;1.83;1.73;;;;;;;;;;5014428;28;20290;-80
2022/07/24 08:11:36;;;;;;;1.40;1.30;;;;;;;;;;5014148;28;20297;-81
2022/07/24 08:14:04;;;;;;;3.35;2.25;;;;;;;;;;5014150;28;20257;-80
2022/07/24 08:16:33;;;;;;;1.60;1.50;;;;;;;;;;5013517;28;20294;-80
2022/07/24 08:19:00;;;;;;;1.48;1.38;;;;;;;;;;5013195;28;20289;-81
2022/07/24 08:21:28;;;;;;;2.00;1.90;;;;;;;;;;5014130;28;20290;-80
2022/07/24 08:23:55;;;;;;;1.88;1.60;;;;;;;;;;5014451;28;20712;-81
2022/07/24 08:26:23;;;;;;;2.00;1.60;;;;;;;;;;5014433;28;20289;-81
2022/07/24 08:28:51;;;;;;;1.98;1.88;;;;;;;;;;5014076;28;20241;-81
2022/07/24 08:31:18;;;;;;;1.55;1.45;;;;;;;;;;5014520;28;20293;-80
2022/07/24 08:33:47;;;;;;;2.10;2.00;;;;;;;;;;5014581;28;20242;-80
2022/07/24 08:36:14;;;;;;;1.80;1.70;;;;;;;;;;5013828;28;20290;-80
2022/07/24 08:38:42;;;;;;;1.65;1.55;;;;;;;;;;5013883;28;20648;-81
2022/07/24 08:41:10;;;;;;;2.20;1.98;;;;;;;;;;5014472;28;20226;-80
2022/07/24 08:43:37;;;;;;;1.92;1.83;;;;;;;;;;5014089;28;20793;-81
2022/07/24 08:46:06;;;;;;;2.20;2.00;;;;;;;;;;5014122;28;20291;-82
2022/07/24 08:48:34;;;;;;;2.80;2.50;;;;;;;;;;5013705;28;20298;-80
2022/07/24 08:51:04;;;;;;;2.35;2.15;;;;;;;;;;5014015;28;20310;-81
2022/07/24 08:53:32;;;;;;;2.63;2.42;;;;;;;;;;5017162;28;20229;-81
2022/07/24 08:56:00;;;;;;;2.28;2.17;;;;;;;;;;5034032;28;20206;-82
2022/07/24 08:58:27;;;;;;;1.70;1.60;;;;;;;;;;5033892;28;20322;-82
2022/07/24 09:00:55;;;;;;;2.08;1.98;;;;;;;;;;5033660;28;20316;-82
2022/07/24 09:03:22;;;;;;;1.70;1.60;;;;;;;;;;5034210;28;20304;-81
2022/07/24 09:05:58;;;;;;;1.67;1.58;;;;;;;;;;5034067;28;20640;-82
2022/07/24 09:08:27;;;;;;;1.90;1.80;;;;;;;;;;5034039;28;20289;-82
2022/07/24 09:11:00;;;;;;;1.98;1.88;;;;;;;;;;5032671;28;20507;-81
2022/07/24 09:13:32;;;;;;;1.98;1.88;;;;;;;;;;5015463;28;20235;-82
2022/07/24 09:16:00;;;;;;;2.60;2.40;;;;;;;;;;5013927;28;20210;-82
2022/07/24 09:18:32;;;;;;;2.65;2.45;;;;;;;;;;5014372;28;20293;-82
2022/07/24 09:21:12;;;;;;;2.38;2.20;;;;;;;;;;5003883;28;20754;-82
2022/07/24 09:23:44;;;;;;;2.15;2.05;;;;;;;;;;5002641;28;20268;-82
2022/07/24 09:26:11;;;;;;;2.17;2.05;;;;;;;;;;5033238;28;20198;-81
2022/07/24 09:28:51;;;;;;;2.25;2.13;;;;;;;;;;5034229;28;20292;-82
2022/07/24 09:31:21;;;;;;;2.47;2.28;;;;;;;;;;5033836;28;20206;-81
2022/07/24 09:33:48;;;;;;;2.67;2.28;;;;;;;;;;5034252;28;20242;-82
2022/07/24 09:36:18;;;;;;;2.30;2.08;;;;;;;;;;5036418;28;20208;-80
2022/07/24 09:38:49;;;;;;;2.40;2.20;;;;;;;;;;5037181;28;20252;-81
2022/07/24 09:41:24;;;;;;;3.03;2.83;;;;;;;;;;5037923;28;20202;-82
2022/07/24 09:44:00;;;;;;;2.03;1.92;;;;;;;;;;5037780;28;20217;-81
2022/07/24 09:46:29;;;;;;;2.85;2.65;;;;;;;;;;5037038;28;20248;-81
2022/07/24 09:49:00;;;;;;;2.95;2.75;;;;;;;;;;5037178;28;20249;-82
2022/07/24 09:51:30;;;;;;;2.05;1.95;;;;;;;;;;5036282;28;20213;-82
2022/07/24 09:54:00;;;;;;;4.10;2.80;;;;;;;;;;5024492;28;20208;-82
2022/07/24 09:56:29;;;;;;;3.08;2.78;;;;;;;;;;5036911;28;20277;-81
2022/07/24 09:58:59;;;;;;;2.85;2.63;;;;;;;;;;5037365;28;20444;-82
2022/07/24 10:01:28;;;;;;;2.47;2.30;;;;;;;;;;5037325;28;20208;-82
2022/07/24 10:03:58;;;;;;;2.90;2.70;;;;;;;;;;5036381;28;20312;-82
2022/07/24 10:06:27;;;;;;;2.67;2.50;;;;;;;;;;5036800;28;20199;-81
2022/07/24 10:08:58;;;;;;;2.45;2.28;;;;;;;;;;5036344;28;20289;-81
2022/07/24 10:11:26;;;;;;;2.00;1.90;;;;;;;;;;5036124;28;20293;-82
2022/07/24 10:13:54;;;;;;;1.65;1.55;;;;;;;;;;5035586;28;20289;-82
2022/07/24 10:16:29;;;;;;;2.50;1.92;;;;;;;;;;5036127;28;20285;-82
2022/07/24 10:18:59;;;;;;;2.60;2.40;;;;;;;;;;5033425;28;20589;-81
2022/07/24 10:21:30;;;;;;;2.72;2.53;;;;;;;;;;5017155;28;20207;-81
2022/07/24 10:24:53;;;;;;;2.80;2.60;;;;;;;;;;5016586;28;20325;-82
2022/07/24 10:27:28;;;;;;;5.78;2.45;;;;;;;;;;5017306;28;20286;-83
2022/07/24 10:29:58;;;;;;;3.03;2.53;;;;;;;;;;5017182;28;20736;-82
2022/07/24 10:32:26;;;;;;;2.60;2.40;;;;;;;;;;5016659;28;20297;-82
2022/07/24 10:35:09;;;;;;;2.03;1.92;;;;;;;;;;5016653;28;20207;-81
2022/07/24 10:37:55;;;;;;;2.38;2.28;;;;;;;;;;5016723;28;20291;-82
2022/07/24 10:40:31;;;;;;;2.05;1.95;;;;;;;;;;5016342;28;20218;-82
2022/07/24 10:43:16;;;;;;;3.15;1.83;;;;;;;;;;5015414;28;20302;-82
2022/07/24 10:45:45;;;;;;;2.10;2.00;;;;;;;;;;4996372;28;20290;-82
2022/07/24 10:48:35;;;;;;;1.92;1.83;;;;;;;;;;4997008;28;20207;-82
2022/07/24 10:51:07;;;;;;;2.42;2.33;;;;;;;;;;4994152;28;20223;-82
2022/07/24 10:53:54;;;;;;;2.13;2.03;;;;;;;;;;5003377;28;20206;-82
2022/07/24 10:56:26;;;;;;;2.55;2.33;;;;;;;;;;5036081;28;20308;-82
2022/07/24 10:59:01;;;;;;;2.53;2.42;;;;;;;;;;5037281;28;20285;-82
2022/07/24 11:01:38;;;;;;;2.45;2.10;;;;;;;;;;5036053;28;20292;-82
2022/07/24 11:04:29;;;;;;;2.70;2.60;;;;;;;;;;5035332;28;20231;-82
2022/07/24 11:07:01;;;;;;;2.03;1.92;;;;;;;;;;5035466;28;20202;-83
2022/07/24 11:09:29;;;;;;;1.75;1.65;;;;;;;;;;5035271;28;20233;-82
2022/07/24 11:12:10;;;;;;;3.03;2.83;;;;;;;;;;5034705;28;20293;-82
2022/07/24 11:14:52;;;;;;;2.13;2.03;;;;;;;;;;5036081;28;20280;-83
2022/07/24 11:17:47;;;;;;;2.63;2.53;;;;;;;;;;5035085;28;20208;-83
2022/07/24 11:20:17;;;;;;;2.83;2.53;;;;;;;;;;4973155;28;20267;-81
2022/07/24 11:22:49;;;;;;;2.92;2.72;;;;;;;;;;4980963;28;20287;-81
2022/07/24 11:25:19;;;;;;;2.45;2.25;;;;;;;;;;5006827;28;20318;-80
2022/07/24 11:27:57;;;;;;;2.85;2.65;;;;;;;;;;4995386;28;20334;-81
2022/07/24 11:30:27;;;;;;;2.90;2.70;;;;;;;;;;4995783;28;20227;-81
2022/07/24 11:32:55;;;;;;;2.92;2.72;;;;;;;;;;4995960;28;20230;-81
2022/07/24 11:35:35;;;;;;;2.50;2.40;;;;;;;;;;4995369;28;20202;-81
2022/07/24 11:38:05;;;;;;;2.05;1.95;;;;;;;;;;4996804;28;20714;-81
2022/07/24 11:40:33;;;;;;;2.30;2.20;;;;;;;;;;5004204;28;20789;-82
2022/07/24 11:43:06;;;;;;;2.72;2.53;;;;;;;;;;5014892;28;20206;-82
2022/07/24 11:45:34;;;;;;;2.50;2.40;;;;;;;;;;5014982;28;20879;-81
2022/07/24 11:48:01;;;;;;;2.28;2.17;;;;;;;;;;5014226;28;20302;-81
2022/07/24 11:50:31;;;;;;;2.38;2.28;;;;;;;;;;5014737;28;20265;-81
2022/07/24 11:52:59;;;;;;;2.60;2.45;;;;;;;;;;5014929;28;20276;-81
2022/07/24 11:55:29;;;;;;;2.15;2.05;;;;;;;;;;5014053;28;20199;-81
2022/07/24 11:57:57;;;;;;;2.58;2.38;;;;;;;;;;5013038;28;20198;-81
2022/07/24 12:00:28;;;;;;;2.65;2.50;;;;;;;;;;5014536;28;20305;-80
2022/07/24 12:02:58;;;;;;;2.92;2.72;;;;;;;;;;5016363;28;20230;-81
2022/07/24 12:05:28;;;;;;;3.00;2.80;;;;;;;;;;5018748;28;20229;-81
2022/07/24 12:07:57;;;;;;;2.22;2.13;;;;;;;;;;5020761;28;20698;-81
2022/07/24 12:10:25;;;;;;;2.40;2.30;;;;;;;;;;5016824;28;20215;-81
2022/07/24 12:12:55;;;;;;;3.22;3.00;;;;;;;;;;5018243;28;20630;-81
2022/07/24 12:15:25;;;;;;;2.22;2.13;;;;;;;;;;5017730;28;20198;-81
2022/07/24 12:18:00;;;;;;;2.80;2.60;;;;;;;;;;5015866;28;20190;-81
2022/07/24 12:20:30;;;;;;;2.80;2.60;;;;;;;;;;5015536;28;20284;-81
2022/07/24 12:22:58;;;;;;;2.58;2.38;;;;;;;;;;5015598;28;20206;-81
2022/07/24 12:25:26;;;;;;;3.13;2.92;;;;;;;;;;5033634;28;20316;-82
2022/07/24 12:28:04;;;;;;;4.28;2.58;;;;;;;;;;5034384;28;20292;-81
2022/07/24 12:30:36;;;;;;;2.33;2.22;;;;;;;;;;5035378;28;20243;-82
2022/07/24 12:33:07;;;;;;;2.40;2.30;;;;;;;;;;5033545;28;20680;-81
2022/07/24 12:35:53;;;;;;;2.55;2.35;;;;;;;;;;5035014;28;20202;-81
2022/07/24 12:38:26;;;;;;;2.45;2.33;;;;;;;;;;5034487;28;20190;-82
2022/07/24 12:41:02;;;;;;;3.22;3.03;;;;;;;;;;5035444;28;20229;-81
2022/07/24 12:43:30;;;;;;;2.63;2.53;;;;;;;;;;5034322;28;20219;-81
2022/07/24 12:46:08;;;;;;;3.38;3.10;;;;;;;;;;5034780;28;20313;-81
2022/07/24 12:48:36;;;;;;;2.70;2.58;;;;;;;;;;5034076;28;20208;-81
2022/07/24 12:51:10;;;;;;;2.88;2.67;;;;;;;;;;5034529;28;20312;-81
2022/07/24 12:53:40;;;;;;;2.63;2.53;;;;;;;;;;5030595;28;20225;-81
2022/07/24 12:56:14;;;;;;;26.52;4.50;;;;;;;;;;5015061;28;20221;-81
2022/07/24 12:58:58;;;;;;;2.75;2.58;;;;;;;;;;5016304;28;20234;-81
2022/07/24 13:01:43;;;;;;;2.25;2.15;;;;;;;;;;5015524;28;20206;-82
2022/07/24 13:04:11;;;;;;;2.47;2.38;;;;;;;;;;5015239;28;20295;-81
2022/07/24 13:06:42;;;;;;;2.60;2.42;;;;;;;;;;5015440;28;20254;-81
2022/07/24 13:09:12;;;;;;;2.78;2.58;;;;;;;;;;5018107;28;20215;-81
2022/07/24 13:11:41;;;;;;;2.72;2.58;;;;;;;;;;5019160;28;20293;-81
2022/07/24 13:14:10;;;;;;;4.57;3.00;;;;;;;;;;5018941;28;20210;-81
2022/07/24 13:16:41;;;;;;;2.67;2.47;;;;;;;;;;5019516;28;20234;-82
2022/07/24 13:19:09;;;;;;;3.30;2.80;;;;;;;;;;5019542;28;20262;-81
2022/07/24 13:21:38;;;;;;;2.88;2.67;;;;;;;;;;5021981;28;20291;-81
2022/07/24 13:24:06;;;;;;;2.53;2.42;;;;;;;;;;5019229;28;20281;-81
2022/07/24 13:26:34;;;;;;;2.30;2.20;;;;;;;;;;5005313;28;20310;-82
2022/07/24 13:29:02;;;;;;;1.98;1.88;;;;;;;;;;5001146;28;20238;-82
2022/07/24 13:31:30;;;;;;;3.05;2.85;;;;;;;;;;5014734;28;20253;-82
2022/07/24 13:33:59;;;;;;;2.50;2.30;;;;;;;;;;5019186;28;20206;-82
2022/07/24 13:36:26;;;;;;;2.40;2.25;;;;;;;;;;5018707;28;20199;-82
2022/07/24 13:38:54;;;;;;;2.33;2.22;;;;;;;;;;5018506;28;20289;-81
2022/07/24 13:41:22;;;;;;;2.30;2.20;;;;;;;;;;5018769;28;20290;-82
2022/07/24 13:43:50;;;;;;;2.50;2.40;;;;;;;;;;5018298;28;20212;-82
2022/07/24 13:46:18;;;;;;;3.03;2.38;;;;;;;;;;5017875;28;20316;-82
2022/07/24 13:48:46;;;;;;;3.10;2.90;;;;;;;;;;5019043;28;20650;-82
2022/07/24 13:51:15;;;;;;;3.00;2.80;;;;;;;;;;5019474;28;20313;-82
2022/07/24 13:53:42;;;;;;;3.25;3.00;;;;;;;;;;5014868;28;20285;-83
2022/07/24 13:56:11;;;;;;;3.92;3.58;;;;;;;;;;5018143;28;20290;-81
2022/07/24 13:58:39;;;;;;;3.45;3.25;;;;;;;;;;5018297;28;20306;-83
2022/07/24 14:01:07;;;;;;;3.20;3.00;;;;;;;;;;5018172;28;20265;-83
2022/07/24 14:03:39;;;;;;;3.60;3.40;;;;;;;;;;5016605;28;20616;-83
2022/07/24 14:06:07;;;;;;;2.15;2.05;;;;;;;;;;5010119;28;20210;-83
2022/07/24 14:08:36;;;;;;;2.40;2.30;;;;;;;;;;5008504;28;20191;-81
2022/07/24 14:11:04;;;;;;;2.65;2.45;;;;;;;;;;5004229;28;20306;-82
2022/07/24 14:13:31;;;;;;;2.85;2.65;;;;;;;;;;4998545;28;20199;-82
2022/07/24 14:15:59;;;;;;;2.17;2.08;;;;;;;;;;4998065;28;20290;-83
2022/07/24 14:18:27;;;;;;;2.40;2.30;;;;;;;;;;4998013;28;20294;-82
2022/07/24 14:20:54;;;;;;;2.75;2.50;;;;;;;;;;4996381;28;20322;-82
2022/07/24 14:23:22;;;;;;;3.20;3.00;;;;;;;;;;5001463;28;20298;-82
2022/07/24 14:25:51;;;;;;;2.70;2.55;;;;;;;;;;5037008;28;20308;-82
2022/07/24 14:28:19;;;;;;;3.20;3.00;;;;;;;;;;5037535;28;20377;-82
2022/07/24 14:30:46;;;;;;;2.97;2.78;;;;;;;;;;5039030;28;20233;-83
2022/07/24 14:33:14;;;;;;;3.22;2.92;;;;;;;;;;5038825;28;20297;-80
2022/07/24 14:35:42;;;;;;;3.20;3.00;;;;;;;;;;5039913;28;20284;-81
2022/07/24 14:38:10;;;;;;;3.08;2.88;;;;;;;;;;5038355;28;20284;-82
2022/07/24 14:40:37;;;;;;;2.95;2.75;;;;;;;;;;5039075;28;20312;-82
2022/07/24 14:43:06;;;;;;;2.75;2.55;;;;;;;;;;5037032;28;20288;-81
2022/07/24 14:45:34;;;;;;;3.33;3.13;;;;;;;;;;5037659;28;20289;-83
2022/07/24 14:48:01;;;;;;;2.35;2.15;;;;;;;;;;5037801;28;20745;-82
2022/07/24 14:50:29;;;;;;;2.33;2.22;;;;;;;;;;5037093;28;20664;-82
2022/07/24 14:52:56;;;;;;;2.63;2.53;;;;;;;;;;5037245;28;20245;-82
2022/07/24 14:55:24;;;;;;;2.83;2.63;;;;;;;;;;5017227;28;20762;-81
2022/07/24 14:57:51;;;;;;;3.40;3.10;;;;;;;;;;5005999;28;20278;-82